sensor_id;sensor_type;location;lat;lon;timestamp;P1;durP1;ratioP1;P2;durP2;ratioP2
76582;SDS011;65462;52.148;7.940;2023-06-19T00:01:07;6.93;;;5.55;;
76582;SDS011;65462;52.148;7.940;2023-06-19T00:03:33;6.45;;;5.13;;
76582;SDS011;65462;52.148;7.940;2023-06-19T00:05:58;6.53;;;5.45;;
76582;SDS011;65462;52.148;7.940;2023-06-19T00:08:23;5.95;;;5.10;;
76582;SDS011;65462;52.148;7.940;2023-06-19T00:10:48;6.50;;;5.80;;
76582;SDS011;65462;52.148;7.940;2023-06-19T00:13:14;5.88;;;5.20;;
76582;SDS011;65462;52.148;7.940;2023-06-19T00:15:39;6.43;;;5.13;;
76582;SDS011;65462;52.148;7.940;2023-06-19T00:18:05;5.85;;;5.25;;
76582;SDS011;65462;52.148;7.940;2023-06-19T00:20:31;7.47;;;5.72;;
76582;SDS011;65462;52.148;7.940;2023-06-19T00:22:57;6.05;;;5.25;;
76582;SDS011;65462;52.148;7.940;2023-06-19T00:25:22;6.72;;;5.57;;
76582;SDS011;65462;52.148;7.940;2023-06-19T00:27:47;6.70;;;5.72;;
76582;SDS011;65462;52.148;7.940;2023-06-19T00:30:13;6.05;;;5.30;;
76582;SDS011;65462;52.148;7.940;2023-06-19T00:32:39;5.80;;;5.03;;
76582;SDS011;65462;52.148;7.940;2023-06-19T00:35:12;6.88;;;5.50;;
76582;SDS011;65462;52.148;7.940;2023-06-19T00:37:39;6.93;;;5.35;;
76582;SDS011;65462;52.148;7.940;2023-06-19T00:40:05;8.05;;;5.18;;
76582;SDS011;65462;52.148;7.940;2023-06-19T00:42:33;6.95;;;5.03;;
76582;SDS011;65462;52.148;7.940;2023-06-19T00:44:58;7.63;;;5.70;;
76582;SDS011;65462;52.148;7.940;2023-06-19T00:47:24;7.43;;;5.72;;
76582;SDS011;65462;52.148;7.940;2023-06-19T00:49:50;6.95;;;4.82;;
76582;SDS011;65462;52.148;7.940;2023-06-19T00:52:16;6.47;;;5.47;;
76582;SDS011;65462;52.148;7.940;2023-06-19T00:54:42;6.55;;;5.38;;
76582;SDS011;65462;52.148;7.940;2023-06-19T00:57:08;7.03;;;5.88;;
76582;SDS011;65462;52.148;7.940;2023-06-19T00:59:34;6.65;;;5.35;;
76582;SDS011;65462;52.148;7.940;2023-06-19T01:01:59;6.88;;;5.43;;
76582;SDS011;65462;52.148;7.940;2023-06-19T01:04:25;9.52;;;5.20;;
76582;SDS011;65462;52.148;7.940;2023-06-19T01:06:53;6.40;;;5.40;;
76582;SDS011;65462;52.148;7.940;2023-06-19T01:09:23;6.43;;;5.43;;
76582;SDS011;65462;52.148;7.940;2023-06-19T01:11:55;6.45;;;5.35;;
76582;SDS011;65462;52.148;7.940;2023-06-19T01:14:27;7.40;;;5.22;;
76582;SDS011;65462;52.148;7.940;2023-06-19T01:16:57;5.93;;;5.32;;
76582;SDS011;65462;52.148;7.940;2023-06-19T01:19:22;7.05;;;5.10;;
76582;SDS011;65462;52.148;7.940;2023-06-19T01:21:48;7.50;;;5.63;;
76582;SDS011;65462;52.148;7.940;2023-06-19T01:24:15;6.32;;;4.93;;
76582;SDS011;65462;52.148;7.940;2023-06-19T01:26:40;5.88;;;4.85;;
76582;SDS011;65462;52.148;7.940;2023-06-19T01:29:10;6.30;;;5.45;;
76582;SDS011;65462;52.148;7.940;2023-06-19T01:31:41;7.38;;;5.10;;
76582;SDS011;65462;52.148;7.940;2023-06-19T01:34:11;6.63;;;5.55;;
76582;SDS011;65462;52.148;7.940;2023-06-19T01:36:38;5.70;;;5.05;;
76582;SDS011;65462;52.148;7.940;2023-06-19T01:39:04;6.10;;;5.22;;
76582;SDS011;65462;52.148;7.940;2023-06-19T01:41:30;6.00;;;4.95;;
76582;SDS011;65462;52.148;7.940;2023-06-19T01:43:56;5.45;;;4.60;;
76582;SDS011;65462;52.148;7.940;2023-06-19T01:46:22;6.22;;;5.55;;
76582;SDS011;65462;52.148;7.940;2023-06-19T01:48:48;6.82;;;5.65;;
76582;SDS011;65462;52.148;7.940;2023-06-19T01:51:13;7.35;;;5.30;;
76582;SDS011;65462;52.148;7.940;2023-06-19T01:53:38;7.07;;;4.93;;
76582;SDS011;65462;52.148;7.940;2023-06-19T01:56:04;6.30;;;5.43;;
76582;SDS011;65462;52.148;7.940;2023-06-19T01:58:29;6.30;;;5.25;;
76582;SDS011;65462;52.148;7.940;2023-06-19T02:00:55;6.22;;;5.30;;
76582;SDS011;65462;52.148;7.940;2023-06-19T02:03:20;6.78;;;5.55;;
76582;SDS011;65462;52.148;7.940;2023-06-19T02:05:46;7.78;;;5.60;;
76582;SDS011;65462;52.148;7.940;2023-06-19T02:08:11;6.95;;;4.90;;
76582;SDS011;65462;52.148;7.940;2023-06-19T02:10:36;6.53;;;5.28;;
76582;SDS011;65462;52.148;7.940;2023-06-19T02:13:02;6.05;;;5.05;;
76582;SDS011;65462;52.148;7.940;2023-06-19T02:15:28;6.47;;;5.70;;
76582;SDS011;65462;52.148;7.940;2023-06-19T02:17:57;7.28;;;5.60;;
76582;SDS011;65462;52.148;7.940;2023-06-19T02:20:22;7.40;;;5.40;;
76582;SDS011;65462;52.148;7.940;2023-06-19T02:22:51;6.78;;;5.47;;
76582;SDS011;65462;52.148;7.940;2023-06-19T02:25:17;7.00;;;5.15;;
76582;SDS011;65462;52.148;7.940;2023-06-19T02:27:42;7.32;;;5.70;;
76582;SDS011;65462;52.148;7.940;2023-06-19T02:30:08;6.82;;;5.72;;
76582;SDS011;65462;52.148;7.940;2023-06-19T02:32:33;6.80;;;5.40;;
76582;SDS011;65462;52.148;7.940;2023-06-19T02:34:59;6.70;;;5.78;;
76582;SDS011;65462;52.148;7.940;2023-06-19T02:37:24;7.15;;;5.35;;
76582;SDS011;65462;52.148;7.940;2023-06-19T02:39:49;8.68;;;6.22;;
76582;SDS011;65462;52.148;7.940;2023-06-19T02:42:15;6.95;;;5.57;;
76582;SDS011;65462;52.148;7.940;2023-06-19T02:44:40;7.55;;;5.68;;
76582;SDS011;65462;52.148;7.940;2023-06-19T02:47:07;7.03;;;5.70;;
76582;SDS011;65462;52.148;7.940;2023-06-19T02:49:32;7.70;;;5.68;;
76582;SDS011;65462;52.148;7.940;2023-06-19T02:51:58;7.90;;;6.22;;
76582;SDS011;65462;52.148;7.940;2023-06-19T02:54:23;6.60;;;5.35;;
76582;SDS011;65462;52.148;7.940;2023-06-19T02:56:48;7.13;;;5.38;;
76582;SDS011;65462;52.148;7.940;2023-06-19T02:59:14;8.32;;;5.57;;
76582;SDS011;65462;52.148;7.940;2023-06-19T03:01:39;6.53;;;5.70;;
76582;SDS011;65462;52.148;7.940;2023-06-19T03:04:04;6.43;;;5.20;;
76582;SDS011;65462;52.148;7.940;2023-06-19T03:06:29;6.63;;;5.80;;
76582;SDS011;65462;52.148;7.940;2023-06-19T03:08:55;7.72;;;5.95;;
76582;SDS011;65462;52.148;7.940;2023-06-19T03:11:21;6.85;;;5.38;;
76582;SDS011;65462;52.148;7.940;2023-06-19T03:13:50;7.35;;;6.00;;
76582;SDS011;65462;52.148;7.940;2023-06-19T03:16:16;7.22;;;5.40;;
76582;SDS011;65462;52.148;7.940;2023-06-19T03:18:42;7.22;;;5.90;;
76582;SDS011;65462;52.148;7.940;2023-06-19T03:21:09;8.23;;;6.07;;
76582;SDS011;65462;52.148;7.940;2023-06-19T03:23:35;6.97;;;5.55;;
76582;SDS011;65462;52.148;7.940;2023-06-19T03:26:01;6.47;;;5.60;;
76582;SDS011;65462;52.148;7.940;2023-06-19T03:28:26;6.05;;;5.15;;
76582;SDS011;65462;52.148;7.940;2023-06-19T03:30:51;7.53;;;5.72;;
76582;SDS011;65462;52.148;7.940;2023-06-19T03:33:16;9.65;;;6.13;;
76582;SDS011;65462;52.148;7.940;2023-06-19T03:35:42;7.63;;;5.72;;
76582;SDS011;65462;52.148;7.940;2023-06-19T03:38:08;8.70;;;6.15;;
76582;SDS011;65462;52.148;7.940;2023-06-19T03:40:33;7.63;;;5.82;;
76582;SDS011;65462;52.148;7.940;2023-06-19T03:42:58;8.40;;;5.88;;
76582;SDS011;65462;52.148;7.940;2023-06-19T03:45:24;7.00;;;5.68;;
76582;SDS011;65462;52.148;7.940;2023-06-19T03:47:49;6.90;;;5.60;;
76582;SDS011;65462;52.148;7.940;2023-06-19T03:50:14;7.63;;;6.00;;
76582;SDS011;65462;52.148;7.940;2023-06-19T03:52:39;7.82;;;6.45;;
76582;SDS011;65462;52.148;7.940;2023-06-19T03:55:05;6.95;;;5.93;;
76582;SDS011;65462;52.148;7.940;2023-06-19T03:57:30;7.38;;;5.85;;
76582;SDS011;65462;52.148;7.940;2023-06-19T03:59:56;6.97;;;5.80;;
76582;SDS011;65462;52.148;7.940;2023-06-19T04:02:21;8.38;;;5.40;;
76582;SDS011;65462;52.148;7.940;2023-06-19T04:04:47;8.82;;;6.00;;
76582;SDS011;65462;52.148;7.940;2023-06-19T04:07:12;7.78;;;5.70;;
76582;SDS011;65462;52.148;7.940;2023-06-19T04:09:38;6.88;;;6.18;;
76582;SDS011;65462;52.148;7.940;2023-06-19T04:12:04;7.38;;;6.20;;
76582;SDS011;65462;52.148;7.940;2023-06-19T04:14:29;7.38;;;5.80;;
76582;SDS011;65462;52.148;7.940;2023-06-19T04:16:55;6.57;;;5.40;;
76582;SDS011;65462;52.148;7.940;2023-06-19T04:19:20;6.50;;;5.75;;
76582;SDS011;65462;52.148;7.940;2023-06-19T04:21:45;6.47;;;5.70;;
76582;SDS011;65462;52.148;7.940;2023-06-19T04:24:11;7.30;;;5.53;;
76582;SDS011;65462;52.148;7.940;2023-06-19T04:26:36;6.47;;;5.32;;
76582;SDS011;65462;52.148;7.940;2023-06-19T04:29:01;6.88;;;5.85;;
76582;SDS011;65462;52.148;7.940;2023-06-19T04:31:27;8.18;;;5.80;;
76582;SDS011;65462;52.148;7.940;2023-06-19T04:33:53;8.23;;;5.82;;
76582;SDS011;65462;52.148;7.940;2023-06-19T04:36:21;7.10;;;5.70;;
76582;SDS011;65462;52.148;7.940;2023-06-19T04:38:46;7.55;;;6.25;;
76582;SDS011;65462;52.148;7.940;2023-06-19T04:41:11;6.60;;;5.38;;
76582;SDS011;65462;52.148;7.940;2023-06-19T04:43:37;7.82;;;5.63;;
76582;SDS011;65462;52.148;7.940;2023-06-19T04:46:02;8.18;;;6.28;;
76582;SDS011;65462;52.148;7.940;2023-06-19T04:48:29;8.02;;;6.45;;
76582;SDS011;65462;52.148;7.940;2023-06-19T04:50:54;7.40;;;6.00;;
76582;SDS011;65462;52.148;7.940;2023-06-19T04:53:21;8.80;;;6.20;;
76582;SDS011;65462;52.148;7.940;2023-06-19T04:55:46;7.43;;;6.18;;
76582;SDS011;65462;52.148;7.940;2023-06-19T04:58:11;7.63;;;6.15;;
76582;SDS011;65462;52.148;7.940;2023-06-19T05:00:37;7.70;;;6.38;;
76582;SDS011;65462;52.148;7.940;2023-06-19T05:03:02;6.78;;;6.03;;
76582;SDS011;65462;52.148;7.940;2023-06-19T05:05:27;7.65;;;6.20;;
76582;SDS011;65462;52.148;7.940;2023-06-19T05:07:53;7.45;;;5.95;;
76582;SDS011;65462;52.148;7.940;2023-06-19T05:10:18;6.63;;;5.90;;
76582;SDS011;65462;52.148;7.940;2023-06-19T05:12:44;7.05;;;6.13;;
76582;SDS011;65462;52.148;7.940;2023-06-19T05:15:09;7.70;;;5.45;;
76582;SDS011;65462;52.148;7.940;2023-06-19T05:17:35;7.50;;;5.93;;
76582;SDS011;65462;52.148;7.940;2023-06-19T05:20:01;7.45;;;5.82;;
76582;SDS011;65462;52.148;7.940;2023-06-19T05:22:26;6.43;;;5.13;;
76582;SDS011;65462;52.148;7.940;2023-06-19T05:24:52;5.80;;;5.20;;
76582;SDS011;65462;52.148;7.940;2023-06-19T05:27:17;7.28;;;6.15;;
76582;SDS011;65462;52.148;7.940;2023-06-19T05:29:42;6.60;;;5.40;;
76582;SDS011;65462;52.148;7.940;2023-06-19T05:32:08;6.30;;;5.38;;
76582;SDS011;65462;52.148;7.940;2023-06-19T05:34:33;6.03;;;5.30;;
76582;SDS011;65462;52.148;7.940;2023-06-19T05:36:58;6.43;;;4.93;;
76582;SDS011;65462;52.148;7.940;2023-06-19T05:39:25;7.90;;;4.93;;
76582;SDS011;65462;52.148;7.940;2023-06-19T05:41:51;5.85;;;4.65;;
76582;SDS011;65462;52.148;7.940;2023-06-19T05:44:16;6.25;;;4.50;;
76582;SDS011;65462;52.148;7.940;2023-06-19T05:46:43;5.07;;;4.57;;
76582;SDS011;65462;52.148;7.940;2023-06-19T05:49:09;6.10;;;4.35;;
76582;SDS011;65462;52.148;7.940;2023-06-19T05:51:34;6.95;;;4.82;;
76582;SDS011;65462;52.148;7.940;2023-06-19T05:53:59;5.60;;;4.43;;
76582;SDS011;65462;52.148;7.940;2023-06-19T05:56:28;4.95;;;4.40;;
76582;SDS011;65462;52.148;7.940;2023-06-19T05:58:54;4.72;;;4.05;;
76582;SDS011;65462;52.148;7.940;2023-06-19T06:01:20;5.90;;;3.60;;
76582;SDS011;65462;52.148;7.940;2023-06-19T06:03:45;5.15;;;3.80;;
76582;SDS011;65462;52.148;7.940;2023-06-19T06:06:10;4.60;;;3.67;;
76582;SDS011;65462;52.148;7.940;2023-06-19T06:08:37;4.55;;;3.90;;
76582;SDS011;65462;52.148;7.940;2023-06-19T06:11:02;7.60;;;3.70;;
76582;SDS011;65462;52.148;7.940;2023-06-19T06:13:27;5.35;;;3.50;;
76582;SDS011;65462;52.148;7.940;2023-06-19T06:15:53;4.90;;;3.42;;
76582;SDS011;65462;52.148;7.940;2023-06-19T06:18:19;4.55;;;3.55;;
76582;SDS011;65462;52.148;7.940;2023-06-19T06:20:44;4.18;;;3.25;;
76582;SDS011;65462;52.148;7.940;2023-06-19T06:23:09;6.53;;;4.07;;
76582;SDS011;65462;52.148;7.940;2023-06-19T06:25:35;4.50;;;3.47;;
76582;SDS011;65462;52.148;7.940;2023-06-19T06:28:00;4.82;;;3.40;;
76582;SDS011;65462;52.148;7.940;2023-06-19T06:30:26;5.80;;;3.65;;
76582;SDS011;65462;52.148;7.940;2023-06-19T06:32:52;7.20;;;3.30;;
76582;SDS011;65462;52.148;7.940;2023-06-19T06:35:18;5.35;;;3.30;;
76582;SDS011;65462;52.148;7.940;2023-06-19T06:37:43;4.20;;;3.20;;
76582;SDS011;65462;52.148;7.940;2023-06-19T06:40:11;7.70;;;3.40;;
76582;SDS011;65462;52.148;7.940;2023-06-19T06:42:37;5.63;;;3.60;;
76582;SDS011;65462;52.148;7.940;2023-06-19T06:45:06;4.20;;;3.35;;
76582;SDS011;65462;52.148;7.940;2023-06-19T06:47:32;4.45;;;3.20;;
76582;SDS011;65462;52.148;7.940;2023-06-19T06:49:57;4.85;;;3.25;;
76582;SDS011;65462;52.148;7.940;2023-06-19T06:52:23;3.30;;;2.72;;
76582;SDS011;65462;52.148;7.940;2023-06-19T06:54:49;3.75;;;2.80;;
76582;SDS011;65462;52.148;7.940;2023-06-19T06:57:14;3.53;;;2.75;;
76582;SDS011;65462;52.148;7.940;2023-06-19T06:59:39;3.63;;;2.72;;
76582;SDS011;65462;52.148;7.940;2023-06-19T07:02:05;3.53;;;2.42;;
76582;SDS011;65462;52.148;7.940;2023-06-19T07:04:30;4.45;;;2.35;;
76582;SDS011;65462;52.148;7.940;2023-06-19T07:06:56;4.18;;;2.28;;
76582;SDS011;65462;52.148;7.940;2023-06-19T07:09:23;2.92;;;2.00;;
76582;SDS011;65462;52.148;7.940;2023-06-19T07:11:48;3.38;;;2.03;;
76582;SDS011;65462;52.148;7.940;2023-06-19T07:14:14;2.65;;;2.05;;
76582;SDS011;65462;52.148;7.940;2023-06-19T07:16:42;2.33;;;1.80;;
76582;SDS011;65462;52.148;7.940;2023-06-19T07:19:09;4.38;;;2.50;;
76582;SDS011;65462;52.148;7.940;2023-06-19T07:21:34;2.95;;;2.15;;
76582;SDS011;65462;52.148;7.940;2023-06-19T07:23:59;2.88;;;1.98;;
76582;SDS011;65462;52.148;7.940;2023-06-19T07:26:25;5.10;;;2.45;;
76582;SDS011;65462;52.148;7.940;2023-06-19T07:28:50;2.97;;;2.00;;
76582;SDS011;65462;52.148;7.940;2023-06-19T07:31:15;2.92;;;1.77;;
76582;SDS011;65462;52.148;7.940;2023-06-19T07:33:41;10.30;;;2.47;;
76582;SDS011;65462;52.148;7.940;2023-06-19T07:36:06;3.38;;;2.10;;
76582;SDS011;65462;52.148;7.940;2023-06-19T07:38:31;3.92;;;1.98;;
76582;SDS011;65462;52.148;7.940;2023-06-19T07:40:57;3.17;;;2.22;;
76582;SDS011;65462;52.148;7.940;2023-06-19T07:43:22;3.45;;;2.00;;
76582;SDS011;65462;52.148;7.940;2023-06-19T07:45:48;2.20;;;1.60;;
76582;SDS011;65462;52.148;7.940;2023-06-19T07:48:14;4.15;;;2.13;;
76582;SDS011;65462;52.148;7.940;2023-06-19T07:50:40;2.40;;;1.85;;
76582;SDS011;65462;52.148;7.940;2023-06-19T07:53:05;2.38;;;2.00;;
76582;SDS011;65462;52.148;7.940;2023-06-19T07:55:30;2.20;;;1.90;;
76582;SDS011;65462;52.148;7.940;2023-06-19T07:57:55;4.05;;;1.90;;
76582;SDS011;65462;52.148;7.940;2023-06-19T08:00:22;2.50;;;1.88;;
76582;SDS011;65462;52.148;7.940;2023-06-19T08:02:48;2.20;;;1.70;;
76582;SDS011;65462;52.148;7.940;2023-06-19T08:05:13;3.55;;;2.22;;
76582;SDS011;65462;52.148;7.940;2023-06-19T08:07:39;1.98;;;1.50;;
76582;SDS011;65462;52.148;7.940;2023-06-19T08:10:04;2.60;;;1.55;;
76582;SDS011;65462;52.148;7.940;2023-06-19T08:12:30;2.83;;;1.80;;
76582;SDS011;65462;52.148;7.940;2023-06-19T08:14:55;2.20;;;1.50;;
76582;SDS011;65462;52.148;7.940;2023-06-19T08:17:21;2.20;;;1.55;;
76582;SDS011;65462;52.148;7.940;2023-06-19T08:19:46;1.77;;;1.45;;
76582;SDS011;65462;52.148;7.940;2023-06-19T08:22:12;2.03;;;1.42;;
76582;SDS011;65462;52.148;7.940;2023-06-19T08:24:37;2.30;;;1.80;;
76582;SDS011;65462;52.148;7.940;2023-06-19T08:27:05;1.98;;;1.52;;
76582;SDS011;65462;52.148;7.940;2023-06-19T08:29:30;2.25;;;1.75;;
76582;SDS011;65462;52.148;7.940;2023-06-19T08:31:55;2.67;;;1.85;;
76582;SDS011;65462;52.148;7.940;2023-06-19T08:34:20;2.45;;;1.95;;
76582;SDS011;65462;52.148;7.940;2023-06-19T08:36:46;5.00;;;1.90;;
76582;SDS011;65462;52.148;7.940;2023-06-19T08:39:11;3.05;;;1.85;;
76582;SDS011;65462;52.148;7.940;2023-06-19T08:41:37;3.45;;;2.05;;
76582;SDS011;65462;52.148;7.940;2023-06-19T08:44:02;2.47;;;2.25;;
76582;SDS011;65462;52.148;7.940;2023-06-19T08:48:54;2.28;;;1.50;;
76582;SDS011;65462;52.148;7.940;2023-06-19T08:51:20;2.40;;;1.77;;
76582;SDS011;65462;52.148;7.940;2023-06-19T08:53:49;2.40;;;1.85;;
76582;SDS011;65462;52.148;7.940;2023-06-19T08:56:19;3.15;;;1.42;;
76582;SDS011;65462;52.148;7.940;2023-06-19T08:58:45;2.22;;;1.58;;
76582;SDS011;65462;52.148;7.940;2023-06-19T09:01:10;2.40;;;1.52;;
76582;SDS011;65462;52.148;7.940;2023-06-19T09:03:36;2.55;;;1.70;;
76582;SDS011;65462;52.148;7.940;2023-06-19T09:06:07;1.65;;;1.50;;
76582;SDS011;65462;52.148;7.940;2023-06-19T09:08:33;2.40;;;1.65;;
76582;SDS011;65462;52.148;7.940;2023-06-19T09:10:59;1.90;;;1.30;;
76582;SDS011;65462;52.148;7.940;2023-06-19T09:13:28;1.33;;;1.20;;
76582;SDS011;65462;52.148;7.940;2023-06-19T09:15:58;2.85;;;1.42;;
76582;SDS011;65462;52.148;7.940;2023-06-19T09:18:31;1.58;;;1.20;;
76582;SDS011;65462;52.148;7.940;2023-06-19T09:21:06;3.78;;;1.40;;
76582;SDS011;65462;52.148;7.940;2023-06-19T09:23:31;1.60;;;1.20;;
76582;SDS011;65462;52.148;7.940;2023-06-19T09:25:57;1.85;;;1.20;;
76582;SDS011;65462;52.148;7.940;2023-06-19T09:28:26;2.58;;;1.40;;
76582;SDS011;65462;52.148;7.940;2023-06-19T09:33:21;2.58;;;1.50;;
76582;SDS011;65462;52.148;7.940;2023-06-19T09:35:47;1.90;;;1.52;;
76582;SDS011;65462;52.148;7.940;2023-06-19T09:38:14;1.88;;;1.25;;
76582;SDS011;65462;52.148;7.940;2023-06-19T09:40:42;1.80;;;1.50;;
76582;SDS011;65462;52.148;7.940;2023-06-19T09:43:09;2.40;;;1.50;;
76582;SDS011;65462;52.148;7.940;2023-06-19T09:45:35;2.85;;;1.52;;
76582;SDS011;65462;52.148;7.940;2023-06-19T09:48:00;1.77;;;1.20;;
76582;SDS011;65462;52.148;7.940;2023-06-19T09:50:26;2.15;;;1.60;;
76582;SDS011;65462;52.148;7.940;2023-06-19T09:52:52;1.67;;;1.42;;
76582;SDS011;65462;52.148;7.940;2023-06-19T09:55:19;2.75;;;0.95;;
76582;SDS011;65462;52.148;7.940;2023-06-19T09:57:49;2.83;;;1.60;;
76582;SDS011;65462;52.148;7.940;2023-06-19T10:00:15;1.50;;;1.30;;
76582;SDS011;65462;52.148;7.940;2023-06-19T10:02:46;2.45;;;1.50;;
76582;SDS011;65462;52.148;7.940;2023-06-19T10:05:13;2.30;;;1.50;;
76582;SDS011;65462;52.148;7.940;2023-06-19T10:07:41;3.00;;;1.30;;
76582;SDS011;65462;52.148;7.940;2023-06-19T10:10:09;2.45;;;1.70;;
76582;SDS011;65462;52.148;7.940;2023-06-19T10:12:49;3.03;;;1.45;;
76582;SDS011;65462;52.148;7.940;2023-06-19T10:15:19;3.45;;;1.65;;
76582;SDS011;65462;52.148;7.940;2023-06-19T10:17:53;1.90;;;1.55;;
76582;SDS011;65462;52.148;7.940;2023-06-19T10:20:31;3.42;;;1.60;;
76582;SDS011;65462;52.148;7.940;2023-06-19T10:25:36;1.90;;;1.50;;
76582;SDS011;65462;52.148;7.940;2023-06-19T10:28:03;2.08;;;1.63;;
76582;SDS011;65462;52.148;7.940;2023-06-19T10:30:31;1.70;;;1.35;;
76582;SDS011;65462;52.148;7.940;2023-06-19T10:32:59;2.15;;;1.38;;
76582;SDS011;65462;52.148;7.940;2023-06-19T10:35:27;1.95;;;1.45;;
76582;SDS011;65462;52.148;7.940;2023-06-19T10:37:53;1.50;;;1.33;;
76582;SDS011;65462;52.148;7.940;2023-06-19T10:40:19;2.33;;;1.38;;
76582;SDS011;65462;52.148;7.940;2023-06-19T10:42:44;3.95;;;1.48;;
76582;SDS011;65462;52.148;7.940;2023-06-19T10:45:11;3.40;;;1.55;;
76582;SDS011;65462;52.148;7.940;2023-06-19T10:47:38;1.75;;;1.27;;
76582;SDS011;65462;52.148;7.940;2023-06-19T10:50:05;2.78;;;1.60;;
76582;SDS011;65462;52.148;7.940;2023-06-19T10:52:34;1.35;;;1.20;;
76582;SDS011;65462;52.148;7.940;2023-06-19T10:55:00;1.50;;;1.35;;
76582;SDS011;65462;52.148;7.940;2023-06-19T10:57:28;1.85;;;1.27;;
76582;SDS011;65462;52.148;7.940;2023-06-19T10:59:54;2.10;;;1.35;;
76582;SDS011;65462;52.148;7.940;2023-06-19T11:02:20;2.95;;;1.73;;
76582;SDS011;65462;52.148;7.940;2023-06-19T11:04:46;2.10;;;1.27;;
76582;SDS011;65462;52.148;7.940;2023-06-19T11:07:12;1.90;;;1.50;;
76582;SDS011;65462;52.148;7.940;2023-06-19T11:09:37;1.90;;;1.30;;
76582;SDS011;65462;52.148;7.940;2023-06-19T11:12:02;3.55;;;1.67;;
76582;SDS011;65462;52.148;7.940;2023-06-19T11:14:29;2.47;;;1.45;;
76582;SDS011;65462;52.148;7.940;2023-06-19T11:16:55;2.40;;;1.48;;
76582;SDS011;65462;52.148;7.940;2023-06-19T11:19:21;3.05;;;1.55;;
76582;SDS011;65462;52.148;7.940;2023-06-19T11:21:51;3.35;;;1.30;;
76582;SDS011;65462;52.148;7.940;2023-06-19T11:24:17;1.70;;;1.50;;
76582;SDS011;65462;52.148;7.940;2023-06-19T11:26:44;2.92;;;1.77;;
76582;SDS011;65462;52.148;7.940;2023-06-19T11:29:18;2.10;;;1.55;;
76582;SDS011;65462;52.148;7.940;2023-06-19T11:31:48;1.95;;;1.70;;
76582;SDS011;65462;52.148;7.940;2023-06-19T11:34:14;3.15;;;1.63;;
76582;SDS011;65462;52.148;7.940;2023-06-19T11:36:40;1.92;;;1.63;;
76582;SDS011;65462;52.148;7.940;2023-06-19T11:39:13;1.80;;;1.48;;
76582;SDS011;65462;52.148;7.940;2023-06-19T11:41:40;2.33;;;1.58;;
76582;SDS011;65462;52.148;7.940;2023-06-19T11:44:07;2.03;;;1.73;;
76582;SDS011;65462;52.148;7.940;2023-06-19T11:46:35;1.90;;;1.60;;
76582;SDS011;65462;52.148;7.940;2023-06-19T11:51:37;3.45;;;1.90;;
76582;SDS011;65462;52.148;7.940;2023-06-19T11:54:04;2.40;;;1.70;;
76582;SDS011;65462;52.148;7.940;2023-06-19T11:56:31;3.63;;;1.90;;
76582;SDS011;65462;52.148;7.940;2023-06-19T11:58:56;3.13;;;2.00;;
76582;SDS011;65462;52.148;7.940;2023-06-19T12:01:21;3.42;;;1.90;;
76582;SDS011;65462;52.148;7.940;2023-06-19T12:03:47;2.55;;;1.90;;
76582;SDS011;65462;52.148;7.940;2023-06-19T12:06:12;2.40;;;1.83;;
76582;SDS011;65462;52.148;7.940;2023-06-19T12:08:37;2.45;;;1.95;;
76582;SDS011;65462;52.148;7.940;2023-06-19T12:11:03;3.13;;;2.00;;
76582;SDS011;65462;52.148;7.940;2023-06-19T12:13:30;3.80;;;2.03;;
76582;SDS011;65462;52.148;7.940;2023-06-19T12:15:55;3.60;;;2.05;;
76582;SDS011;65462;52.148;7.940;2023-06-19T12:18:20;4.32;;;1.80;;
76582;SDS011;65462;52.148;7.940;2023-06-19T12:20:46;3.85;;;2.15;;
76582;SDS011;65462;52.148;7.940;2023-06-19T12:23:11;2.75;;;1.75;;
76582;SDS011;65462;52.148;7.940;2023-06-19T12:25:36;2.97;;;2.00;;
76582;SDS011;65462;52.148;7.940;2023-06-19T12:28:01;2.47;;;1.90;;
76582;SDS011;65462;52.148;7.940;2023-06-19T12:30:32;3.55;;;1.95;;
76582;SDS011;65462;52.148;7.940;2023-06-19T12:32:58;3.25;;;2.00;;
76582;SDS011;65462;52.148;7.940;2023-06-19T12:35:23;3.33;;;2.00;;
76582;SDS011;65462;52.148;7.940;2023-06-19T12:37:50;2.20;;;1.92;;
76582;SDS011;65462;52.148;7.940;2023-06-19T12:40:16;3.58;;;2.38;;
76582;SDS011;65462;52.148;7.940;2023-06-19T12:42:42;3.65;;;1.55;;
76582;SDS011;65462;52.148;7.940;2023-06-19T12:45:08;2.95;;;2.13;;
76582;SDS011;65462;52.148;7.940;2023-06-19T12:47:34;2.58;;;1.98;;
76582;SDS011;65462;52.148;7.940;2023-06-19T12:50:00;3.35;;;2.38;;
76582;SDS011;65462;52.148;7.940;2023-06-19T12:52:25;2.70;;;2.28;;
76582;SDS011;65462;52.148;7.940;2023-06-19T12:54:51;3.10;;;2.30;;
76582;SDS011;65462;52.148;7.940;2023-06-19T12:57:16;4.25;;;2.35;;
76582;SDS011;65462;52.148;7.940;2023-06-19T12:59:42;3.22;;;2.35;;
76582;SDS011;65462;52.148;7.940;2023-06-19T13:02:07;3.08;;;2.20;;
76582;SDS011;65462;52.148;7.940;2023-06-19T13:04:32;4.68;;;2.28;;
76582;SDS011;65462;52.148;7.940;2023-06-19T13:06:57;3.65;;;2.03;;
76582;SDS011;65462;52.148;7.940;2023-06-19T13:09:23;3.42;;;2.40;;
76582;SDS011;65462;52.148;7.940;2023-06-19T13:11:49;2.92;;;2.05;;
76582;SDS011;65462;52.148;7.940;2023-06-19T13:14:14;2.92;;;2.08;;
76582;SDS011;65462;52.148;7.940;2023-06-19T13:16:40;3.72;;;2.40;;
76582;SDS011;65462;52.148;7.940;2023-06-19T13:19:05;3.75;;;2.42;;
76582;SDS011;65462;52.148;7.940;2023-06-19T13:21:31;3.03;;;2.33;;
76582;SDS011;65462;52.148;7.940;2023-06-19T13:23:56;4.28;;;2.65;;
76582;SDS011;65462;52.148;7.940;2023-06-19T13:26:21;4.30;;;2.20;;
76582;SDS011;65462;52.148;7.940;2023-06-19T13:28:46;3.85;;;2.25;;
76582;SDS011;65462;52.148;7.940;2023-06-19T13:31:12;4.32;;;2.40;;
76582;SDS011;65462;52.148;7.940;2023-06-19T13:33:37;2.95;;;2.20;;
76582;SDS011;65462;52.148;7.940;2023-06-19T13:36:02;4.25;;;2.35;;
76582;SDS011;65462;52.148;7.940;2023-06-19T13:38:28;5.43;;;2.63;;
76582;SDS011;65462;52.148;7.940;2023-06-19T13:40:53;3.78;;;2.70;;
76582;SDS011;65462;52.148;7.940;2023-06-19T13:43:18;2.92;;;2.22;;
76582;SDS011;65462;52.148;7.940;2023-06-19T13:45:44;4.18;;;2.92;;
76582;SDS011;65462;52.148;7.940;2023-06-19T13:48:10;3.25;;;2.38;;
76582;SDS011;65462;52.148;7.940;2023-06-19T13:50:35;3.53;;;2.65;;
76582;SDS011;65462;52.148;7.940;2023-06-19T13:53:01;3.55;;;2.90;;
76582;SDS011;65462;52.148;7.940;2023-06-19T13:55:26;3.20;;;2.47;;
76582;SDS011;65462;52.148;7.940;2023-06-19T13:57:52;4.00;;;2.70;;
76582;SDS011;65462;52.148;7.940;2023-06-19T14:00:17;3.20;;;2.60;;
76582;SDS011;65462;52.148;7.940;2023-06-19T14:02:43;3.05;;;2.35;;
76582;SDS011;65462;52.148;7.940;2023-06-19T14:05:09;6.00;;;2.70;;
76582;SDS011;65462;52.148;7.940;2023-06-19T14:07:34;4.47;;;2.70;;
76582;SDS011;65462;52.148;7.940;2023-06-19T14:10:01;3.17;;;2.72;;
76582;SDS011;65462;52.148;7.940;2023-06-19T14:12:28;3.55;;;2.75;;
76582;SDS011;65462;52.148;7.940;2023-06-19T14:14:53;3.75;;;2.78;;
76582;SDS011;65462;52.148;7.940;2023-06-19T14:17:18;3.53;;;2.65;;
76582;SDS011;65462;52.148;7.940;2023-06-19T14:19:44;3.72;;;2.85;;
76582;SDS011;65462;52.148;7.940;2023-06-19T14:22:09;3.25;;;2.70;;
76582;SDS011;65462;52.148;7.940;2023-06-19T14:24:34;2.97;;;2.58;;
76582;SDS011;65462;52.148;7.940;2023-06-19T14:26:59;4.03;;;2.72;;
76582;SDS011;65462;52.148;7.940;2023-06-19T14:29:25;3.75;;;2.70;;
76582;SDS011;65462;52.148;7.940;2023-06-19T14:31:50;5.55;;;3.17;;
76582;SDS011;65462;52.148;7.940;2023-06-19T14:34:16;3.55;;;2.75;;
76582;SDS011;65462;52.148;7.940;2023-06-19T14:36:42;3.45;;;3.10;;
76582;SDS011;65462;52.148;7.940;2023-06-19T14:39:07;4.03;;;3.03;;
76582;SDS011;65462;52.148;7.940;2023-06-19T14:41:32;4.22;;;2.42;;
76582;SDS011;65462;52.148;7.940;2023-06-19T14:43:57;4.00;;;2.70;;
76582;SDS011;65462;52.148;7.940;2023-06-19T14:46:23;3.90;;;2.88;;
76582;SDS011;65462;52.148;7.940;2023-06-19T14:48:48;3.60;;;2.67;;
76582;SDS011;65462;52.148;7.940;2023-06-19T14:51:13;3.47;;;2.80;;